createdAt,value
2022-08-20T00:02:10.373Z,5.60
2022-08-20T00:04:39.622Z,5.07
2022-08-20T00:07:07.310Z,5.32
2022-08-20T00:09:36.526Z,5.60
2022-08-20T00:12:05.120Z,5.13
2022-08-20T00:14:33.912Z,5.10
2022-08-20T00:17:01.626Z,5.32
2022-08-20T00:19:29.477Z,5.07
2022-08-20T00:21:58.115Z,5.60
2022-08-20T00:24:26.012Z,5.15
2022-08-20T00:26:53.374Z,6.72
2022-08-20T00:29:22.450Z,5.68
2022-08-20T00:31:50.658Z,5.22
2022-08-20T00:34:18.027Z,5.50
2022-08-20T00:36:45.360Z,5.22
2022-08-20T00:39:12.643Z,6.05
2022-08-20T00:41:40.048Z,5.32
2022-08-20T00:44:13.280Z,5.70
2022-08-20T00:46:41.049Z,5.53
2022-08-20T00:49:09.736Z,5.85
2022-08-20T00:51:43.561Z,5.47
2022-08-20T00:54:23.406Z,5.88
2022-08-20T00:56:53.039Z,5.72
2022-08-20T00:59:22.514Z,5.07
2022-08-20T01:01:55.288Z,5.60
2022-08-20T01:04:23.497Z,5.47
2022-08-20T01:06:51.037Z,5.50
2022-08-20T01:09:18.326Z,5.78
2022-08-20T01:12:07.329Z,5.75
2022-08-20T01:14:34.640Z,5.72
2022-08-20T01:17:03.817Z,5.50
2022-08-20T01:19:36.030Z,5.63
2022-08-20T01:22:24.617Z,5.40
2022-08-20T01:24:53.809Z,5.32
2022-08-20T01:27:22.796Z,5.45
2022-08-20T01:29:52.385Z,5.47
2022-08-20T01:32:19.745Z,4.93
2022-08-20T01:34:47.083Z,5.40
2022-08-20T01:37:14.454Z,5.30
2022-08-20T01:39:41.832Z,5.10
2022-08-20T01:42:14.748Z,6.03
2022-08-20T01:44:43.547Z,5.28
2022-08-20T01:47:20.711Z,5.40
2022-08-20T01:49:51.514Z,4.90
2022-08-20T01:52:23.462Z,5.20
2022-08-20T01:54:50.795Z,5.18
2022-08-20T01:57:19.995Z,5.38
2022-08-20T01:59:48.626Z,5.55
2022-08-20T02:02:15.929Z,5.47
2022-08-20T02:04:43.350Z,5.30
2022-08-20T02:07:15.343Z,5.47
2022-08-20T02:09:42.813Z,5.32
2022-08-20T02:12:10.768Z,5.38
2022-08-20T02:14:42.434Z,5.80
2022-08-20T02:17:10.525Z,5.88
2022-08-20T02:19:42.026Z,5.90
2022-08-20T02:22:24.381Z,6.18
2022-08-20T02:24:52.274Z,5.57
2022-08-20T02:27:23.684Z,5.82
2022-08-20T02:29:52.057Z,6.00
2022-08-20T02:32:25.065Z,5.82
2022-08-20T02:35:03.956Z,5.93
2022-08-20T02:37:31.614Z,6.30
2022-08-20T02:39:59.014Z,5.78
2022-08-20T02:42:26.663Z,5.88
2022-08-20T02:44:54.993Z,5.95
2022-08-20T02:47:22.340Z,7.45
2022-08-20T02:49:49.654Z,6.45
2022-08-20T02:52:16.949Z,6.13
2022-08-20T02:54:44.794Z,5.40
2022-08-20T02:57:16.239Z,5.63
2022-08-20T02:59:45.339Z,5.72
2022-08-20T03:02:13.065Z,6.10
2022-08-20T03:04:40.510Z,6.85
2022-08-20T03:07:07.952Z,10.43
2022-08-20T03:09:35.234Z,6.30
2022-08-20T03:12:03.004Z,5.85
2022-08-20T03:14:30.377Z,6.20
2022-08-20T03:16:57.735Z,6.40
2022-08-20T03:19:25.447Z,5.60
2022-08-20T03:21:53.240Z,6.10
2022-08-20T03:24:20.506Z,6.32
2022-08-20T03:26:47.926Z,6.00
2022-08-20T03:29:15.307Z,6.28
2022-08-20T03:31:42.633Z,6.03
2022-08-20T03:34:09.943Z,6.50
2022-08-20T03:36:37.337Z,6.90
2022-08-20T03:39:07.234Z,6.22
2022-08-20T03:41:34.551Z,6.30
2022-08-20T03:44:01.839Z,5.80
2022-08-20T03:46:29.169Z,6.50
2022-08-20T03:48:59.735Z,6.20
2022-08-20T03:51:29.491Z,6.03
2022-08-20T03:53:56.943Z,6.18
2022-08-20T03:56:24.549Z,5.95
2022-08-20T03:58:51.874Z,6.43
2022-08-20T04:01:45.548Z,6.13
2022-08-20T04:04:06.646Z,6.63
2022-08-20T04:06:40.470Z,6.50
2022-08-20T04:09:09.719Z,6.35
2022-08-20T04:11:39.401Z,6.40
2022-08-20T04:14:06.691Z,6.22
2022-08-20T04:16:34.745Z,6.18
2022-08-20T04:19:03.697Z,5.60
2022-08-20T04:21:33.198Z,6.60
2022-08-20T04:24:01.320Z,6.03
2022-08-20T04:26:29.028Z,6.05
2022-08-20T04:28:56.400Z,5.85
2022-08-20T04:31:33.358Z,6.85
2022-08-20T04:34:01.835Z,6.50
2022-08-20T04:36:29.552Z,5.88
2022-08-20T04:38:56.837Z,6.80
2022-08-20T04:41:24.566Z,5.95
2022-08-20T04:43:55.993Z,6.05
2022-08-20T04:46:25.849Z,6.63
2022-08-20T04:48:53.795Z,6.30
2022-08-20T04:51:22.770Z,6.07
2022-08-20T04:53:52.225Z,6.18
2022-08-20T04:56:24.080Z,6.10
2022-08-20T04:58:52.564Z,6.38
2022-08-20T05:01:20.291Z,6.38
2022-08-20T05:03:47.964Z,6.07
2022-08-20T05:06:16.340Z,6.30
2022-08-20T05:08:44.443Z,6.43
2022-08-20T05:11:33.716Z,6.00
2022-08-20T05:13:59.611Z,6.22
2022-08-20T05:16:26.969Z,6.50
2022-08-20T05:18:54.226Z,6.38
2022-08-20T05:21:22.052Z,6.63
2022-08-20T05:23:49.647Z,6.00
2022-08-20T05:26:20.400Z,6.80
2022-08-20T05:28:58.096Z,6.90
2022-08-20T05:31:33.015Z,6.35
2022-08-20T05:34:10.758Z,6.57
2022-08-20T05:36:43.395Z,6.38
2022-08-20T05:39:10.983Z,6.35
2022-08-20T05:41:39.087Z,5.93
2022-08-20T05:44:10.729Z,5.85
2022-08-20T05:46:40.962Z,6.88
2022-08-20T05:49:12.529Z,6.10
2022-08-20T05:51:40.095Z,6.57
2022-08-20T05:54:07.614Z,6.20
2022-08-20T05:56:36.044Z,6.65
2022-08-20T05:59:04.878Z,6.65
2022-08-20T06:01:32.713Z,5.55
2022-08-20T06:04:18.703Z,6.03
2022-08-20T06:06:47.381Z,6.03
2022-08-20T06:09:27.971Z,6.28
2022-08-20T06:11:59.626Z,6.28
2022-08-20T06:14:27.243Z,5.95
2022-08-20T06:16:57.217Z,5.95
2022-08-20T06:19:26.283Z,6.07
2022-08-20T06:21:54.817Z,6.72
2022-08-20T06:24:22.156Z,6.45
2022-08-20T06:26:55.561Z,6.53
2022-08-20T06:29:22.863Z,6.30
2022-08-20T06:31:50.162Z,6.60
2022-08-20T06:34:18.536Z,6.65
2022-08-20T06:36:46.871Z,6.20
2022-08-20T06:39:15.183Z,6.43
2022-08-20T06:41:42.922Z,5.80
2022-08-20T06:44:10.758Z,6.45
2022-08-20T06:46:38.737Z,6.38
2022-08-20T06:49:07.151Z,6.00
2022-08-20T06:51:35.025Z,6.18
2022-08-20T06:54:02.327Z,5.80
2022-08-20T06:56:29.641Z,5.60
2022-08-20T06:58:56.916Z,5.90
2022-08-20T07:01:24.368Z,5.90
2022-08-20T07:03:54.706Z,6.18
2022-08-20T07:06:25.731Z,5.85
2022-08-20T07:08:53.443Z,6.30
2022-08-20T07:11:26.610Z,5.55
2022-08-20T07:13:56.778Z,5.72
2022-08-20T07:16:25.543Z,5.80
2022-08-20T07:18:52.867Z,5.93
2022-08-20T07:21:20.257Z,5.78
2022-08-20T07:23:49.611Z,5.90
2022-08-20T07:26:17.015Z,5.45
2022-08-20T07:28:44.309Z,5.30
2022-08-20T07:31:31.430Z,5.28
2022-08-20T07:33:59.748Z,5.55
2022-08-20T07:36:27.605Z,5.60
2022-08-20T07:38:55.079Z,5.40
2022-08-20T07:41:24.354Z,5.50
2022-08-20T07:43:51.751Z,5.80
2022-08-20T07:46:20.848Z,5.80
2022-08-20T07:48:50.368Z,5.25
2022-08-20T07:51:22.384Z,5.47
2022-08-20T07:53:50.395Z,5.35
2022-08-20T07:56:19.430Z,5.28
2022-08-20T07:58:50.293Z,5.07
2022-08-20T08:01:23.089Z,5.30
2022-08-20T08:03:50.844Z,5.05
2022-08-20T08:06:29.163Z,5.10
2022-08-20T08:09:08.897Z,5.15
2022-08-20T08:11:38.030Z,5.53
2022-08-20T08:14:06.733Z,5.32
2022-08-20T08:16:35.158Z,4.95
2022-08-20T08:19:02.842Z,5.20
2022-08-20T08:21:31.095Z,5.10
2022-08-20T08:23:58.423Z,4.75
2022-08-20T08:26:29.024Z,4.88
2022-08-20T08:28:58.358Z,4.75
2022-08-20T08:31:26.063Z,5.10
2022-08-20T08:33:53.544Z,5.22
2022-08-20T08:36:21.008Z,4.90
2022-08-20T08:38:48.519Z,4.38
2022-08-20T08:41:15.832Z,4.97
2022-08-20T08:43:46.825Z,4.35
2022-08-20T08:46:18.076Z,4.88
2022-08-20T08:48:47.832Z,4.68
2022-08-20T08:51:20.611Z,4.32
2022-08-20T08:53:51.157Z,4.78
2022-08-20T08:56:18.612Z,4.53
2022-08-20T08:58:46.098Z,4.82
2022-08-20T09:01:53.887Z,5.00
2022-08-20T09:04:06.089Z,4.75
2022-08-20T09:06:33.498Z,4.63
2022-08-20T09:09:02.538Z,4.80
2022-08-20T09:11:30.381Z,4.25
2022-08-20T09:13:58.805Z,4.10
2022-08-20T09:16:30.064Z,4.63
2022-08-20T09:19:14.662Z,4.78
2022-08-20T09:21:41.985Z,3.90
2022-08-20T09:24:09.338Z,4.53
2022-08-20T09:26:39.168Z,4.50
2022-08-20T09:29:06.640Z,4.72
2022-08-20T09:31:33.959Z,4.50
2022-08-20T09:34:01.274Z,4.32
2022-08-20T09:36:29.060Z,4.05
2022-08-20T09:38:59.981Z,4.32
2022-08-20T09:41:27.298Z,4.10
2022-08-20T09:43:54.720Z,4.30
2022-08-20T09:46:27.482Z,4.28
2022-08-20T09:48:55.162Z,4.68
2022-08-20T09:51:22.792Z,4.63
2022-08-20T09:53:50.251Z,5.15
2022-08-20T09:56:17.840Z,5.00
2022-08-20T09:58:52.914Z,5.05
2022-08-20T10:01:21.324Z,4.95
2022-08-20T10:03:49.777Z,5.43
2022-08-20T10:06:19.944Z,5.22
2022-08-20T10:08:47.472Z,5.30
2022-08-20T10:11:14.810Z,4.93
2022-08-20T10:13:42.285Z,5.35
2022-08-20T10:16:09.594Z,4.85
2022-08-20T10:18:37.354Z,5.00
2022-08-20T10:21:09.359Z,4.95
2022-08-20T10:23:36.698Z,5.30
2022-08-20T10:26:04.453Z,5.22
2022-08-20T10:28:31.831Z,5.25
2022-08-20T10:30:59.098Z,5.20
2022-08-20T10:33:26.472Z,4.97
2022-08-20T10:35:59.718Z,5.35
2022-08-20T10:38:27.419Z,5.03
2022-08-20T10:40:54.711Z,5.43
2022-08-20T10:43:22.069Z,4.90
2022-08-20T10:45:49.350Z,5.60
2022-08-20T10:48:20.926Z,5.30
2022-08-20T10:50:49.010Z,5.00
2022-08-20T10:53:16.365Z,5.18
2022-08-20T10:55:43.742Z,5.57
2022-08-20T10:58:11.425Z,4.82
2022-08-20T11:00:38.893Z,5.15
2022-08-20T11:03:06.266Z,5.25
2022-08-20T11:05:33.635Z,5.32
2022-08-20T11:08:03.075Z,5.35
2022-08-20T11:10:31.555Z,5.20
2022-08-20T11:12:58.884Z,5.40
2022-08-20T11:15:26.437Z,5.20
2022-08-20T11:17:53.858Z,5.35
2022-08-20T11:20:23.742Z,5.95
2022-08-20T11:22:51.071Z,5.70
2022-08-20T11:25:18.437Z,6.07
2022-08-20T11:27:47.515Z,5.70
2022-08-20T11:30:18.445Z,5.25
2022-08-20T11:32:45.811Z,5.45
2022-08-20T11:35:41.055Z,6.07
2022-08-20T11:38:01.538Z,5.40
2022-08-20T11:40:29.734Z,5.70
2022-08-20T11:43:14.125Z,5.60
2022-08-20T11:45:42.845Z,6.05
2022-08-20T11:48:10.147Z,5.80
2022-08-20T11:50:37.426Z,5.75
2022-08-20T11:53:04.785Z,5.57
2022-08-20T11:55:32.641Z,5.40
2022-08-20T11:58:00.951Z,5.88
2022-08-20T12:00:32.859Z,5.57
2022-08-20T12:03:02.242Z,6.05
2022-08-20T12:05:30.274Z,6.15
2022-08-20T12:07:58.382Z,6.72
2022-08-20T12:10:26.896Z,6.38
2022-08-20T12:12:54.575Z,5.78
2022-08-20T12:15:21.902Z,6.05
2022-08-20T12:17:49.219Z,5.47
2022-08-20T12:20:16.624Z,5.20
2022-08-20T12:22:44.765Z,5.60
2022-08-20T12:25:13.312Z,5.60
2022-08-20T12:27:41.332Z,5.80
2022-08-20T12:30:10.935Z,5.30
2022-08-20T12:32:38.285Z,5.32
2022-08-20T12:35:06.942Z,5.03
2022-08-20T12:37:34.328Z,4.78
2022-08-20T12:40:02.738Z,4.80
2022-08-20T12:42:33.171Z,4.63
2022-08-20T12:45:01.041Z,5.40
2022-08-20T12:47:29.966Z,5.57
2022-08-20T12:50:01.121Z,4.72
2022-08-20T12:52:45.330Z,4.80
2022-08-20T12:55:44.077Z,4.78
2022-08-20T12:58:12.060Z,4.97
2022-08-20T13:00:43.308Z,4.50
2022-08-20T13:03:11.573Z,4.75
2022-08-20T13:05:39.431Z,4.70
2022-08-20T13:08:10.660Z,4.45
2022-08-20T13:10:44.235Z,4.30
2022-08-20T13:13:12.755Z,4.45
2022-08-20T13:15:40.388Z,4.32
2022-08-20T13:18:08.329Z,4.60
2022-08-20T13:20:36.315Z,4.10
2022-08-20T13:23:04.883Z,4.10
2022-08-20T13:25:32.645Z,4.55
2022-08-20T13:28:00.609Z,4.07
2022-08-20T13:30:28.424Z,4.35
2022-08-20T13:32:55.863Z,3.90
2022-08-20T13:35:23.381Z,3.42
2022-08-20T13:37:51.568Z,3.47
2022-08-20T13:40:19.331Z,3.47
2022-08-20T13:42:46.884Z,3.30
2022-08-20T13:45:14.593Z,3.67
2022-08-20T13:47:42.745Z,3.30
2022-08-20T13:50:13.331Z,3.42
2022-08-20T13:52:42.757Z,3.08
2022-08-20T13:55:11.567Z,3.10
2022-08-20T13:57:38.909Z,2.50
2022-08-20T14:00:09.906Z,2.40
2022-08-20T14:02:37.233Z,2.92
2022-08-20T14:05:04.586Z,3.00
2022-08-20T14:07:32.949Z,2.38
2022-08-20T14:10:01.827Z,2.60
2022-08-20T14:12:30.699Z,2.40
2022-08-20T14:14:58.236Z,2.70
2022-08-20T14:17:30.084Z,2.97
2022-08-20T14:20:01.480Z,2.25
2022-08-20T14:22:29.213Z,2.05
2022-08-20T14:24:56.823Z,2.38
2022-08-20T14:27:29.236Z,2.25
2022-08-20T14:29:59.054Z,2.70
2022-08-20T14:32:26.687Z,2.53
2022-08-20T14:34:54.457Z,2.60
2022-08-20T14:37:23.404Z,2.30
2022-08-20T14:39:52.797Z,2.50
2022-08-20T14:42:22.360Z,2.50
2022-08-20T14:44:49.935Z,2.60
2022-08-20T14:47:22.559Z,2.67
2022-08-20T14:49:51.779Z,2.65
2022-08-20T14:52:20.844Z,2.47
2022-08-20T14:54:48.607Z,2.28
2022-08-20T14:57:16.639Z,2.75
2022-08-20T14:59:43.999Z,2.40
2022-08-20T15:02:12.903Z,2.63
2022-08-20T15:04:40.889Z,2.40
2022-08-20T15:07:13.182Z,2.55
2022-08-20T15:09:40.980Z,2.50
2022-08-20T15:12:08.387Z,2.42
2022-08-20T15:14:35.705Z,2.53
2022-08-20T15:19:34.015Z,2.80
2022-08-20T15:22:01.320Z,2.65
2022-08-20T15:24:28.621Z,2.78
2022-08-20T15:26:55.918Z,3.00
2022-08-20T15:29:23.662Z,2.95
2022-08-20T15:31:51.324Z,2.55
2022-08-20T15:34:18.651Z,3.20
2022-08-20T15:36:46.441Z,2.80
2022-08-20T15:39:13.734Z,3.00
2022-08-20T15:41:41.047Z,3.13
2022-08-20T15:44:08.374Z,3.10
2022-08-20T15:46:35.770Z,3.33
2022-08-20T15:49:08.464Z,2.88
2022-08-20T15:51:43.398Z,2.63
2022-08-20T15:54:16.676Z,3.50
2022-08-20T15:56:53.054Z,3.10
2022-08-20T15:59:39.167Z,3.05
2022-08-20T16:02:12.348Z,3.20
2022-08-20T16:04:39.598Z,3.22
2022-08-20T16:07:10.743Z,2.95
2022-08-20T16:09:38.149Z,3.22
2022-08-20T16:12:05.529Z,3.08
2022-08-20T16:14:37.703Z,3.80
2022-08-20T16:17:14.105Z,3.72
2022-08-20T16:19:44.443Z,3.33
2022-08-20T16:22:14.087Z,3.38
2022-08-20T16:24:41.402Z,3.53
2022-08-20T16:27:15.030Z,3.60
2022-08-20T16:29:45.753Z,3.55
2022-08-20T16:32:12.986Z,3.92
2022-08-20T16:34:45.955Z,4.25
2022-08-20T16:37:16.026Z,3.80
2022-08-20T16:39:51.890Z,3.67
2022-08-20T16:42:21.787Z,4.03
2022-08-20T16:44:50.381Z,3.72
2022-08-20T16:47:23.695Z,3.92
2022-08-20T16:50:06.025Z,4.00
2022-08-20T16:52:33.442Z,4.28
2022-08-20T16:55:00.721Z,4.03
2022-08-20T16:57:28.857Z,4.43
2022-08-20T17:00:08.589Z,4.32
2022-08-20T17:02:35.937Z,4.28
2022-08-20T17:05:06.639Z,4.40
2022-08-20T17:07:51.237Z,4.00
2022-08-20T17:10:22.394Z,4.47
2022-08-20T17:12:54.234Z,4.80
2022-08-20T17:15:24.505Z,5.00
2022-08-20T17:17:54.526Z,4.35
2022-08-20T17:20:22.538Z,4.80
2022-08-20T17:22:52.186Z,5.47
2022-08-20T17:25:30.687Z,5.43
2022-08-20T17:28:00.512Z,5.35
2022-08-20T17:30:35.049Z,5.50
2022-08-20T17:33:03.767Z,5.65
2022-08-20T17:35:51.434Z,5.15
2022-08-20T17:38:37.734Z,5.78
2022-08-20T17:41:13.948Z,5.60
2022-08-20T17:43:44.928Z,5.72
2022-08-20T17:46:16.585Z,5.82
2022-08-20T17:48:45.244Z,5.93
2022-08-20T17:51:20.726Z,5.47
2022-08-20T17:53:51.864Z,5.93
2022-08-20T17:56:39.421Z,5.47
2022-08-20T17:59:10.418Z,5.50
2022-08-20T18:01:37.914Z,5.32
2022-08-20T18:04:05.290Z,6.28
2022-08-20T18:06:47.411Z,6.47
2022-08-20T18:09:22.364Z,5.93
2022-08-20T18:12:04.119Z,5.65
2022-08-20T18:14:31.471Z,6.47
2022-08-20T18:17:01.861Z,6.35
2022-08-20T18:19:38.373Z,5.93
2022-08-20T18:22:09.167Z,6.28
2022-08-20T18:24:48.910Z,6.30
2022-08-20T18:27:18.034Z,6.13
2022-08-20T18:29:48.932Z,6.35
2022-08-20T18:32:27.480Z,6.47
2022-08-20T18:34:55.114Z,6.75
2022-08-20T18:37:25.548Z,6.18
2022-08-20T18:39:53.163Z,6.60
2022-08-20T18:42:23.757Z,6.68
2022-08-20T18:44:52.443Z,6.80
2022-08-20T18:47:24.530Z,6.27
2022-08-20T18:50:00.799Z,7.22
2022-08-20T18:52:30.419Z,6.63
2022-08-20T18:54:59.086Z,7.40
2022-08-20T18:57:26.431Z,7.28
2022-08-20T19:00:04.822Z,6.90
2022-08-20T19:02:34.338Z,6.97
2022-08-20T19:05:04.239Z,6.68
2022-08-20T19:07:48.330Z,7.75
2022-08-20T19:10:28.273Z,6.40
2022-08-20T19:12:58.843Z,7.30
2022-08-20T19:15:26.643Z,7.30
2022-08-20T19:18:03.349Z,7.18
2022-08-20T19:20:36.106Z,6.53
2022-08-20T19:23:14.056Z,7.40
2022-08-20T19:25:44.306Z,7.18
2022-08-20T19:28:20.125Z,7.40
2022-08-20T19:30:47.499Z,7.05
2022-08-20T19:33:14.897Z,6.97
2022-08-20T19:35:42.254Z,6.82
2022-08-20T19:38:15.955Z,7.40
2022-08-20T19:40:46.197Z,7.53
2022-08-20T19:43:15.649Z,7.70
2022-08-20T19:45:54.543Z,7.32
2022-08-20T19:48:26.963Z,6.82
2022-08-20T19:50:57.669Z,6.80
2022-08-20T19:53:30.733Z,7.28
2022-08-20T19:56:10.459Z,7.55
2022-08-20T19:58:37.782Z,7.30
2022-08-20T20:01:06.016Z,7.47
2022-08-20T20:03:35.343Z,7.30
2022-08-20T20:06:15.084Z,7.50
2022-08-20T20:08:46.475Z,7.25
2022-08-20T20:11:21.601Z,7.57
2022-08-20T20:13:48.912Z,7.13
2022-08-20T20:16:17.812Z,7.70
2022-08-20T20:18:45.566Z,7.68
2022-08-20T20:21:18.438Z,8.10
2022-08-20T20:23:53.233Z,7.82
2022-08-20T20:26:20.744Z,7.10
2022-08-20T20:28:49.761Z,8.13
2022-08-20T20:31:25.700Z,7.88
2022-08-20T20:33:55.127Z,7.93
2022-08-20T20:36:33.555Z,8.43
2022-08-20T20:39:04.425Z,8.57
2022-08-20T20:41:31.802Z,8.13
2022-08-20T20:44:03.779Z,7.97
2022-08-20T20:46:33.745Z,8.32
2022-08-20T20:49:10.031Z,8.63
2022-08-20T20:51:39.299Z,8.82
2022-08-20T20:54:21.903Z,8.02
2022-08-20T20:56:58.008Z,8.45
2022-08-20T20:59:25.316Z,8.25
2022-08-20T21:01:52.639Z,8.00
2022-08-20T21:04:20.674Z,8.60
2022-08-20T21:06:48.528Z,8.95
2022-08-20T21:09:15.903Z,9.02
2022-08-20T21:11:43.302Z,9.38
2022-08-20T21:14:10.604Z,9.05
2022-08-20T21:16:37.916Z,8.80
2022-08-20T21:19:06.132Z,9.35
2022-08-20T21:21:33.467Z,9.35
2022-08-20T21:24:00.775Z,9.70
2022-08-20T21:26:28.539Z,8.63
2022-08-20T21:28:56.110Z,10.25
2022-08-20T21:31:27.041Z,8.05
2022-08-20T21:33:54.323Z,8.77
2022-08-20T21:36:21.681Z,8.50
2022-08-20T21:38:48.994Z,9.35
2022-08-20T21:41:16.350Z,8.70
2022-08-20T21:43:44.359Z,8.13
2022-08-20T21:46:17.082Z,7.72
2022-08-20T21:48:52.278Z,8.45
2022-08-20T21:51:19.640Z,8.13
2022-08-20T21:53:46.993Z,8.20
2022-08-20T21:56:14.328Z,8.00
2022-08-20T21:58:41.631Z,7.80
2022-08-20T22:01:09.340Z,9.77
2022-08-20T22:03:38.548Z,9.00
2022-08-20T22:06:07.185Z,7.97
2022-08-20T22:08:34.523Z,8.18
2022-08-20T22:11:02.712Z,8.70
2022-08-20T22:13:31.867Z,8.52
2022-08-20T22:16:00.157Z,8.02
2022-08-20T22:18:27.707Z,8.52
2022-08-20T22:20:55.028Z,8.18
2022-08-20T22:23:22.586Z,8.27
2022-08-20T22:25:49.980Z,7.90
2022-08-20T22:28:17.825Z,8.18
2022-08-20T22:30:45.137Z,8.35
2022-08-20T22:33:18.960Z,8.38
2022-08-20T22:35:47.829Z,7.93
2022-08-20T22:38:15.370Z,7.95
2022-08-20T22:40:43.043Z,7.88
2022-08-20T22:43:10.721Z,8.52
2022-08-20T22:45:38.243Z,8.40
2022-08-20T22:48:06.410Z,8.00
2022-08-20T22:50:33.884Z,8.30
2022-08-20T22:53:02.224Z,8.52
2022-08-20T22:55:29.591Z,7.78
2022-08-20T22:57:57.072Z,8.27
2022-08-20T23:00:24.555Z,8.55
2022-08-20T23:02:53.366Z,7.88
2022-08-20T23:05:23.062Z,7.75
2022-08-20T23:07:53.933Z,8.00
2022-08-20T23:10:21.753Z,8.55
2022-08-20T23:12:49.342Z,8.35
2022-08-20T23:15:16.900Z,7.80
2022-08-20T23:17:44.340Z,8.27
2022-08-20T23:20:13.029Z,8.20
2022-08-20T23:22:40.339Z,8.48
2022-08-20T23:25:08.442Z,7.85
2022-08-20T23:27:38.339Z,8.45
2022-08-20T23:30:05.937Z,8.13
2022-08-20T23:32:33.270Z,7.93
2022-08-20T23:35:00.591Z,8.20
2022-08-20T23:37:28.002Z,7.70
2022-08-20T23:39:56.273Z,8.55
2022-08-20T23:42:23.627Z,7.65
2022-08-20T23:44:50.944Z,8.70
2022-08-20T23:47:20.056Z,7.93
2022-08-20T23:49:47.710Z,7.68
2022-08-20T23:52:15.049Z,7.90
2022-08-20T23:54:42.370Z,7.90
2022-08-20T23:57:09.683Z,8.02
2022-08-20T23:59:37.156Z,7.90
